PWSweather.com
Personal Weather Stations
Station Observations

ThornlieThornlieAU 6108

Lat: -32.055186, Lon: 115.956744

Elevation: 70

Station Type: Davis Vantage Pro 2

http://members.iinet.net.au/~nossis/weather/index.htm

Latest ConditionsUpdated 11:15:00 AM GMT+08:08 Saturday, Jan 18, 2020
Currently Today's Max Today's Min Today's Average
Temperature 82.0°F27.8°C 82.0°F27.8°C 66.7°F19.3°C 72.3°F22.4°C
Dew Point 57.4°F14.1°C 63.1°F17.3°C 57.0°F13.9°C 60.0°F15.6°C
Winds 4.0 mph S6.4 kmh S 6.0 mph -9.7 kmh - - 3.1 mph 5.0 kmh
Wind Gusts 11.0 mph17.7 kmh 17.0 mph27.4 kmh - -
Humidity 43% 78% 43% 66%
Pressure 29.95 in1014.2 mb 29.98 in1015.2 mb 29.87 in1011.5 mb -
Hour Temp Dew Point Humidity Winds Wind Gusts Pressure Precip Precip Rate Daily Precip Total
11:15 AM 82.0°F27.8°C 57.4°F14.1°C 43% 4.0 mph S6.4 kmh S 11.0 mph17.7 kmh 29.95 in1014.2 mb 0.00 in0.0 mm 0.00 in0.0 mm 0.00 in0.0 mm
11:00 AM 81.7°F27.6°C 57.0°F13.9°C 43% 4.0 mph SE6.4 kmh SE 12.0 mph19.3 kmh 29.95 in1014.2 mb 0.00 in0.0 mm 0.00 in0.0 mm 0.00 in0.0 mm
10:45 AM 80.8°F27.1°C 57.4°F14.1°C 45% 4.0 mph S6.4 kmh S 9.0 mph14.5 kmh 29.96 in1014.6 mb 0.00 in0.0 mm 0.00 in0.0 mm 0.00 in0.0 mm
10:30 AM 80.4°F26.9°C 57.7°F14.3°C 46% 3.0 mph SSE4.8 kmh SSE 11.0 mph17.7 kmh 29.96 in1014.6 mb 0.00 in0.0 mm 0.00 in0.0 mm 0.00 in0.0 mm
10:15 AM 79.5°F26.4°C 58.1°F14.5°C 48% 4.0 mph SE6.4 kmh SE 13.0 mph20.9 kmh 29.96 in1014.6 mb 0.00 in0.0 mm 0.00 in0.0 mm 0.00 in0.0 mm
10:00 AM 79.2°F26.2°C 57.2°F14.0°C 47% 5.0 mph SE8.0 kmh SE 12.0 mph19.3 kmh 29.97 in1014.9 mb 0.00 in0.0 mm 0.00 in0.0 mm 0.00 in0.0 mm
09:45 AM 78.4°F25.8°C 58.3°F14.6°C 50% 4.0 mph SE6.4 kmh SE 10.0 mph16.1 kmh 29.96 in1014.6 mb 0.00 in0.0 mm 0.00 in0.0 mm 0.00 in0.0 mm
09:30 AM 77.5°F25.3°C 57.4°F14.1°C 50% 4.0 mph SE6.4 kmh SE 11.0 mph17.7 kmh 29.96 in1014.6 mb 0.00 in0.0 mm 0.00 in0.0 mm 0.00 in0.0 mm
09:15 AM 76.1°F24.5°C 57.7°F14.3°C 53% 5.0 mph SE8.0 kmh SE 10.0 mph16.1 kmh 29.97 in1014.9 mb 0.00 in0.0 mm 0.00 in0.0 mm 0.00 in0.0 mm
09:00 AM 75.7°F24.3°C 57.4°F14.1°C 53% 4.0 mph ESE6.4 kmh ESE 11.0 mph17.7 kmh 29.97 in1014.9 mb 0.00 in0.0 mm 0.00 in0.0 mm 0.00 in0.0 mm
08:45 AM 74.7°F23.7°C 57.9°F14.4°C 56% 4.0 mph SE6.4 kmh SE 11.0 mph17.7 kmh 29.97 in1014.9 mb 0.00 in0.0 mm 0.00 in0.0 mm 0.00 in0.0 mm
08:30 AM 73.0°F22.8°C 57.0°F13.9°C 57% 6.0 mph SE9.7 kmh SE 15.0 mph24.1 kmh 29.98 in1015.2 mb 0.00 in0.0 mm 0.00 in0.0 mm 0.00 in0.0 mm
08:15 AM 72.3°F22.4°C 57.7°F14.3°C 60% 5.0 mph SE8.0 kmh SE 11.0 mph17.7 kmh 29.98 in1015.2 mb 0.00 in0.0 mm 0.00 in0.0 mm 0.00 in0.0 mm
08:00 AM 71.8°F22.1°C 57.6°F14.2°C 61% 6.0 mph SE9.7 kmh SE 17.0 mph27.4 kmh 29.98 in1015.2 mb 0.00 in0.0 mm 0.00 in0.0 mm 0.00 in0.0 mm
07:45 AM 71.4°F21.9°C 58.3°F14.6°C 63% 4.0 mph SE6.4 kmh SE 12.0 mph19.3 kmh 29.98 in1015.2 mb 0.00 in0.0 mm 0.00 in0.0 mm 0.00 in0.0 mm
07:30 AM 71.1°F21.7°C 58.6°F14.8°C 65% 3.0 mph SE4.8 kmh SE 10.0 mph16.1 kmh 29.97 in1014.9 mb 0.00 in0.0 mm 0.00 in0.0 mm 0.00 in0.0 mm
07:15 AM 70.0°F21.1°C 58.8°F14.9°C 68% 5.0 mph SE8.0 kmh SE 11.0 mph17.7 kmh 29.97 in1014.9 mb 0.00 in0.0 mm 0.00 in0.0 mm 0.00 in0.0 mm
07:00 AM 68.9°F20.5°C 58.6°F14.8°C 70% 6.0 mph SE9.7 kmh SE 14.0 mph22.5 kmh 29.97 in1014.9 mb 0.00 in0.0 mm 0.00 in0.0 mm 0.00 in0.0 mm
06:45 AM 67.8°F19.9°C 58.8°F14.9°C 73% 5.0 mph SE8.0 kmh SE 11.0 mph17.7 kmh 29.96 in1014.6 mb 0.00 in0.0 mm 0.00 in0.0 mm 0.00 in0.0 mm
06:30 AM 66.7°F19.3°C 58.5°F14.7°C 75% 5.0 mph SE8.0 kmh SE 14.0 mph22.5 kmh 29.96 in1014.6 mb 0.00 in0.0 mm 0.00 in0.0 mm 0.00 in0.0 mm
06:15 AM 66.7°F19.3°C 59.2°F15.1°C 77% 3.0 mph SE4.8 kmh SE 9.0 mph14.5 kmh 29.95 in1014.2 mb 0.00 in0.0 mm 0.00 in0.0 mm 0.00 in0.0 mm
06:00 AM 66.7°F19.3°C 59.4°F15.2°C 77% 3.0 mph SE4.8 kmh SE 8.0 mph12.9 kmh 29.95 in1014.2 mb 0.00 in0.0 mm 0.00 in0.0 mm 0.00 in0.0 mm
05:45 AM 66.9°F19.4°C 59.9°F15.5°C 78% 4.0 mph SSE6.4 kmh SSE 13.0 mph20.9 kmh 29.94 in1013.9 mb 0.00 in0.0 mm 0.00 in0.0 mm 0.00 in0.0 mm
05:30 AM 67.5°F19.7°C 60.3°F15.7°C 78% 1.0 mph SSE1.6 kmh SSE 5.0 mph8.0 kmh 29.94 in1013.9 mb 0.00 in0.0 mm 0.00 in0.0 mm 0.00 in0.0 mm
05:15 AM 67.5°F19.7°C 60.4°F15.8°C 78% 2.0 mph SE3.2 kmh SE 6.0 mph9.7 kmh 29.93 in1013.5 mb 0.00 in0.0 mm 0.00 in0.0 mm 0.00 in0.0 mm
05:00 AM 67.6°F19.8°C 60.6°F15.9°C 78% 1.0 mph S1.6 kmh S 4.0 mph6.4 kmh 29.92 in1013.2 mb 0.00 in0.0 mm 0.00 in0.0 mm 0.00 in0.0 mm
04:45 AM 68.4°F20.2°C 60.8°F16.0°C 77% 1.0 mph SSE1.6 kmh SSE 5.0 mph8.0 kmh 29.92 in1013.2 mb 0.00 in0.0 mm 0.00 in0.0 mm 0.00 in0.0 mm
04:30 AM 68.5°F20.3°C 61.0°F16.1°C 77% 2.0 mph SSE3.2 kmh SSE 6.0 mph9.7 kmh 29.91 in1012.9 mb 0.00 in0.0 mm 0.00 in0.0 mm 0.00 in0.0 mm
04:15 AM 68.9°F20.5°C 61.0°F16.1°C 76% 1.0 mph SSE1.6 kmh SSE 4.0 mph6.4 kmh 29.91 in1012.9 mb 0.00 in0.0 mm 0.00 in0.0 mm 0.00 in0.0 mm
04:00 AM 69.4°F20.8°C 61.2°F16.2°C 75% 2.0 mph SSE3.2 kmh SSE 8.0 mph12.9 kmh 29.90 in1012.5 mb 0.00 in0.0 mm 0.00 in0.0 mm 0.00 in0.0 mm
03:45 AM 69.6°F20.9°C 61.3°F16.3°C 75% 3.0 mph SE4.8 kmh SE 12.0 mph19.3 kmh 29.90 in1012.5 mb 0.00 in0.0 mm 0.00 in0.0 mm 0.00 in0.0 mm
03:30 AM 70.0°F21.1°C 61.7°F16.5°C 75% 2.0 mph SE3.2 kmh SE 7.0 mph11.3 kmh 29.90 in1012.5 mb 0.00 in0.0 mm 0.00 in0.0 mm 0.00 in0.0 mm
03:15 AM 70.5°F21.4°C 61.9°F16.6°C 74% 3.0 mph SE4.8 kmh SE 13.0 mph20.9 kmh 29.90 in1012.5 mb 0.00 in0.0 mm 0.00 in0.0 mm 0.00 in0.0 mm
03:00 AM 71.1°F21.7°C 62.1°F16.7°C 73% 2.0 mph SE3.2 kmh SE 9.0 mph14.5 kmh 29.89 in1012.2 mb 0.00 in0.0 mm 0.00 in0.0 mm 0.00 in0.0 mm
02:45 AM 71.2°F21.8°C 62.1°F16.7°C 73% 2.0 mph SE3.2 kmh SE 7.0 mph11.3 kmh 29.89 in1012.2 mb 0.00 in0.0 mm 0.00 in0.0 mm 0.00 in0.0 mm
02:30 AM 71.2°F21.8°C 62.2°F16.8°C 73% 2.0 mph S3.2 kmh S 7.0 mph11.3 kmh 29.88 in1011.9 mb 0.00 in0.0 mm 0.00 in0.0 mm 0.00 in0.0 mm
02:15 AM 71.4°F21.9°C 62.8°F17.1°C 74% 2.0 mph S3.2 kmh S 5.0 mph8.0 kmh 29.88 in1011.9 mb 0.00 in0.0 mm 0.00 in0.0 mm 0.00 in0.0 mm
02:00 AM 71.4°F21.9°C 62.8°F17.1°C 74% 1.0 mph SSE1.6 kmh SSE 6.0 mph9.7 kmh 29.87 in1011.5 mb 0.00 in0.0 mm 0.00 in0.0 mm 0.00 in0.0 mm
01:45 AM 71.4°F21.9°C 62.8°F17.1°C 74% 1.0 mph S1.6 kmh S 4.0 mph6.4 kmh 29.87 in1011.5 mb 0.00 in0.0 mm 0.00 in0.0 mm 0.00 in0.0 mm
01:30 AM 71.8°F22.1°C 62.6°F17.0°C 73% 1.0 mph S1.6 kmh S 4.0 mph6.4 kmh 29.87 in1011.5 mb 0.00 in0.0 mm 0.00 in0.0 mm 0.00 in0.0 mm
01:15 AM 72.1°F22.3°C 62.6°F17.0°C 72% 1.0 mph SSE1.6 kmh SSE 5.0 mph8.0 kmh 29.87 in1011.5 mb 0.00 in0.0 mm 0.00 in0.0 mm 0.00 in0.0 mm
01:00 AM 72.7°F22.6°C 62.8°F17.1°C 71% 2.0 mph SSE3.2 kmh SSE 5.0 mph8.0 kmh 29.87 in1011.5 mb 0.00 in0.0 mm 0.00 in0.0 mm 0.00 in0.0 mm
12:45 AM 73.2°F22.9°C 62.8°F17.1°C 70% 2.0 mph SE3.2 kmh SE 7.0 mph11.3 kmh 29.87 in1011.5 mb 0.00 in0.0 mm 0.00 in0.0 mm 0.00 in0.0 mm
12:30 AM 73.6°F23.1°C 62.8°F17.1°C 69% 3.0 mph SE4.8 kmh SE 12.0 mph19.3 kmh 29.88 in1011.9 mb 0.00 in0.0 mm 0.00 in0.0 mm 0.00 in0.0 mm
12:15 AM 73.4°F23.0°C 63.0°F17.2°C 70% 2.0 mph SE3.2 kmh SE 7.0 mph11.3 kmh 29.88 in1011.9 mb 0.00 in0.0 mm 0.00 in0.0 mm 0.00 in0.0 mm
12:00 AM 73.0°F22.8°C 63.1°F17.3°C 71% 3.0 mph SE4.8 kmh SE 8.0 mph12.9 kmh 29.88 in1011.9 mb 0.00 in0.0 mm 0.00 in0.0 mm 0.00 in0.0 mm